Estación de Remehue INIA
Ultimos registro cada 15 minutos 63
| N° | Estación | Fecha / Hora | Temperatura | Humedad | Lluvia | Velocidad | Dirección | Radiación | Presion |
| 63 | Remehue INIA | 07-05-2026 15:30 | 8,2 | 81,8 | 0 | 1,1 | 349 | 115 | 1016 |
| 62 | Remehue INIA | 07-05-2026 15:15 | 8 | 86,1 | 0 | 1,2 | 346 | 119 | 1016 |
| 61 | Remehue INIA | 07-05-2026 15:00 | 7,8 | 84,3 | 0 | 1,4 | 18 | 132 | 1017 |
| 60 | Remehue INIA | 07-05-2026 14:45 | 7,6 | 86,1 | 0,1 | 1,6 | 37 | 99 | 1017 |
| 59 | Remehue INIA | 07-05-2026 14:30 | 9 | 82,3 | 0,1 | 1,6 | 114 | 42 | 1016 |
| 58 | Remehue INIA | 07-05-2026 14:15 | 9,9 | 65,9 | 0 | 0,7 | 199 | 67 | 1016 |
| 57 | Remehue INIA | 07-05-2026 14:00 | 10,3 | 64,1 | 0 | 1,2 | 200 | 187 | 1017 |
| 56 | Remehue INIA | 07-05-2026 13:45 | 10,4 | 59,7 | 0 | 1,1 | 176 | 305 | 1017 |
| 55 | Remehue INIA | 07-05-2026 13:30 | 10 | 64 | 0 | 0,9 | 194 | 223 | 1017 |
| 54 | Remehue INIA | 07-05-2026 13:15 | 9,9 | 61,1 | 0 | 1,1 | 203 | 274 | 1017 |
| 53 | Remehue INIA | 07-05-2026 13:00 | 9,9 | 60,1 | 0 | 1,5 | 216 | 337 | 1017 |
| 52 | Remehue INIA | 07-05-2026 12:45 | 9,7 | 63,8 | 0 | 1 | 197 | 244 | 1017 |
| 51 | Remehue INIA | 07-05-2026 12:30 | 9,4 | 65,3 | 0 | 0,9 | 176 | 226 | 1017 |
| 50 | Remehue INIA | 07-05-2026 12:15 | 9,1 | 69,4 | 0 | 1,5 | 170 | 178 | 1017 |
| 49 | Remehue INIA | 07-05-2026 12:00 | 9,3 | 65,5 | 0 | 2 | 154 | 222 | 1017 |
| 48 | Remehue INIA | 07-05-2026 11:45 | 9,4 | 66,6 | 0 | 1,6 | 168 | 296 | 1017 |
| 47 | Remehue INIA | 07-05-2026 11:30 | 9,1 | 66,9 | 0 | 1,8 | 161 | 313 | 1017 |
| 46 | Remehue INIA | 07-05-2026 11:15 | 9,1 | 65,5 | 0 | 1,4 | 172 | 214 | 1017 |
| 45 | Remehue INIA | 07-05-2026 11:00 | 9,2 | 70,6 | 0 | 0,4 | 170 | 215 | 1017 |
| 44 | Remehue INIA | 07-05-2026 10:45 | 8,7 | 74,7 | 0 | 0 | 160 | 242 | 1018 |
| 43 | Remehue INIA | 07-05-2026 10:30 | 8 | 82,1 | 0 | 0,5 | 163 | 157 | 1017 |
| 42 | Remehue INIA | 07-05-2026 10:15 | 7,7 | 81,8 | 0 | 0,6 | 188 | 170 | 1018 |
| 41 | Remehue INIA | 07-05-2026 10:00 | 7,5 | 81,9 | 0 | 0,8 | 180 | 143 | 1018 |
| 40 | Remehue INIA | 07-05-2026 09:45 | 7,6 | 81,8 | 0 | 0,4 | 179 | 210 | 1017 |
| 39 | Remehue INIA | 07-05-2026 09:30 | 6,4 | 88,3 | 0 | 0 | 0 | 233 | 1018 |
| 38 | Remehue INIA | 07-05-2026 09:15 | 5,2 | 92,4 | 0 | 0 | 0 | 103 | 1017 |
| 37 | Remehue INIA | 07-05-2026 09:00 | 5 | 93,5 | 0 | 0 | 286 | 52 | 1017 |
| 36 | Remehue INIA | 07-05-2026 08:45 | 4,6 | 94,8 | 0 | 0,2 | 203 | 48 | 1017 |
| 35 | Remehue INIA | 07-05-2026 08:30 | 4,3 | 95,5 | 0 | 0,1 | 233 | 30 | 1018 |
| 34 | Remehue INIA | 07-05-2026 08:15 | 4,1 | 95,4 | 0 | 0 | 0 | 18 | 1017 |
| 33 | Remehue INIA | 07-05-2026 08:00 | 3,8 | 95,4 | 0 | 0,1 | 204 | 7 | 1017 |
| 32 | Remehue INIA | 07-05-2026 07:45 | 3,7 | 95,1 | 0 | 0,1 | 217 | 0 | 1017 |
| 31 | Remehue INIA | 07-05-2026 07:30 | 3,9 | 94,7 | 0 | 0 | 200 | 0 | 1017 |
| 30 | Remehue INIA | 07-05-2026 07:15 | 4,1 | 94 | 0 | 0 | 86 | 0 | 1017 |
| 29 | Remehue INIA | 07-05-2026 07:00 | 4,4 | 93,9 | 0 | 0 | 249 | 0 | 1017 |
| 28 | Remehue INIA | 07-05-2026 06:45 | 4,5 | 94 | 0 | 0,3 | 258 | 0 | 1017 |
| 27 | Remehue INIA | 07-05-2026 06:30 | 4,6 | 93,9 | 0 | 0,1 | 266 | 0 | 1017 |
| 26 | Remehue INIA | 07-05-2026 06:15 | 4,9 | 92,6 | 0 | 0,1 | 112 | 0 | 1017 |
| 25 | Remehue INIA | 07-05-2026 06:00 | 4,9 | 92,6 | 0 | 0,1 | 357 | 0 | 1017 |
| 24 | Remehue INIA | 07-05-2026 05:45 | 5,6 | 88,1 | 0 | 0,1 | 238 | 0 | 1017 |
| 23 | Remehue INIA | 07-05-2026 05:30 | 6,1 | 84,9 | 0 | 0,5 | 164 | 0 | 1017 |
| 22 | Remehue INIA | 07-05-2026 05:15 | 6,4 | 84,5 | 0,1 | 1,9 | 158 | 0 | 1017 |
| 21 | Remehue INIA | 07-05-2026 05:00 | 6,2 | 82,4 | 0 | 2,4 | 160 | 0 | 1016 |
| 20 | Remehue INIA | 07-05-2026 04:45 | 6 | 82,3 | 0 | 1,3 | 167 | 0 | 1016 |
| 19 | Remehue INIA | 07-05-2026 04:30 | 6 | 81,2 | 0 | 0,3 | 162 | 0 | 1016 |
| 18 | Remehue INIA | 07-05-2026 04:15 | 6,4 | 79,5 | 0 | 1 | 151 | 0 | 1016 |
| 17 | Remehue INIA | 07-05-2026 04:00 | 6,1 | 80,9 | 0 | 0,9 | 152 | 0 | 1016 |
| 16 | Remehue INIA | 07-05-2026 03:45 | 6,2 | 80,5 | 0 | 0,7 | 157 | 0 | 1016 |
| 15 | Remehue INIA | 07-05-2026 03:30 | 6,7 | 80,9 | 0 | 1 | 161 | 0 | 1016 |
| 14 | Remehue INIA | 07-05-2026 03:15 | 7,2 | 78,1 | 0 | 1,6 | 160 | 0 | 1016 |
| 13 | Remehue INIA | 07-05-2026 03:00 | 7,4 | 75,7 | 0 | 2,6 | 158 | 0 | 1016 |
| 12 | Remehue INIA | 07-05-2026 02:45 | 7,4 | 76,3 | 0 | 1,7 | 157 | 0 | 1015 |
| 11 | Remehue INIA | 07-05-2026 02:30 | 7,7 | 76,2 | 0 | 2,2 | 155 | 0 | 1015 |
| 10 | Remehue INIA | 07-05-2026 02:15 | 8,1 | 74,3 | 0 | 3 | 154 | 0 | 1015 |
| 9 | Remehue INIA | 07-05-2026 02:00 | 8,1 | 68,1 | 0 | 1,8 | 156 | 0 | 1015 |
| 8 | Remehue INIA | 07-05-2026 01:45 | 8 | 69,6 | 0 | 2,2 | 151 | 0 | 1014 |
| 7 | Remehue INIA | 07-05-2026 01:30 | 7,7 | 75,2 | 0 | 2 | 164 | 0 | 1014 |
| 6 | Remehue INIA | 07-05-2026 01:15 | 8 | 79,2 | 0 | 1,7 | 170 | 0 | 1014 |
| 5 | Remehue INIA | 07-05-2026 01:00 | 8,4 | 75,1 | 0 | 2,2 | 160 | 0 | 1014 |
| 4 | Remehue INIA | 07-05-2026 00:45 | 8,5 | 73,6 | 0 | 2,2 | 155 | 0 | 1014 |
| 3 | Remehue INIA | 07-05-2026 00:30 | 8,5 | 77 | 0 | 2,3 | 149 | 0 | 1014 |
| 2 | Remehue INIA | 07-05-2026 00:15 | 8,4 | 81,6 | 0 | 2,2 | 159 | 0 | 1014 |
| 1 | Remehue INIA | 07-05-2026 00:00 | 8,2 | 84,3 | 0 | 1,8 | 158 | 0 | 1014 |